Ackley, IA

11:50 AM CDT on July 31, 2014 (GMT -0500)
Jensen Farm (KIAIOWAF2) Elev 1129 ft | 42.50 °N, 93.20 °W | Change Station

Current weather conditions updated 40 seconds ago

Clear
Clear
74.4 °F
Feels Like 77 °F
N
6.0
Wind Variable Wind from WSW
Gusts 11.0 mph

Today is forecast to be nearly the same temperature as yesterday.

Today
High -- | Low -- °F
--% Chance of Precip.
Yesterday
High -- | Low -- °F
Precip. -- in
6:03 AM 8:33 PM
Waxing Crescent, 19% visible
Pressure 30.10 in
Visibility 10.0 miles
Clouds Clear
Heat Index 77 °F
Dew Point 57 °F
Humidity 55%
Rainfall 0.00 in
Snow Depth Not available.
UV 9 out of 12
Pollen 6.90 out of 12
Air Quality Not available.
Flu Activity Not available.
METAR KIFA 311635Z AUTO 27007KT 10SM CLR 24/14 A3010 RMK AO2 T02420143

More Conditions Fewer Conditions

Pressure 30.10 in
Visibility 10.0 miles
Clouds Clear
Heat Index 77 °F
Dew Point 57 °F
Humidity 55%
Rainfall 0.00 in
Snow Depth Not available.
UV 9 out of 12
Pollen 6.90 out of 12
Air Quality Not available.
Flu Activity Not available.
METAR KIFA 311635Z AUTO 27007KT 10SM CLR 24/14 A3010 RMK AO2 T02420143

More Conditions Fewer Conditions

10-Day Weather Forecast

Almanac

Astronomy

Jul. 31, 2014 Rise Set
Actual Time 6:03 AM CDT 8:33 PM CDT
Civil Twilight 5:31 AM CDT 9:05 PM CDT
Nautical Twilight 4:51 AM CDT 9:44 PM CDT
Astronomical Twilight 4:06 AM CDT 10:29 PM CDT
Moon 10:38 AM CDT 10:39 PM CDT
Length of Visible Light 15h 33m
Length of Day
14h 30m
Tomorrow will be 2m 11s shorter.
Waxing Crescent, 19% of the Moon is Illuminated
Today
Waxing Crescent
Aug 3
First Quarter
Aug 10
Full
Aug 17
Last Quarter
Aug 25
New

Today's Extremes

State Highs State Lows

Community

WunderPhotos

Upload Photos

1,739,370 photos uploaded!

WunderBlogs® & News

Nearby

Snow Depth

Station Depth Elevation
No new snow has been reported.

Earthquake Activity

City Distance Mag. Time & Date
No recent earthquake activity has been reported nearby.
Minimum magnitude displayed is 2.5.

Coastal Water Temperatures

Place Temperature
No Stations Reporting

Nearby Weather Stations

Station Location Temp. Heat Index Dew Point Humidity Wind Precip. Elev Updated Type
Jensen Farm, Iowa Falls, IA 74.4 °F 77 °F 57 °F 55% WSW  at  6.0 mph 0.00 in / hr 1129 ft 11:50 AM CDT Rapid Fire
MesoWest ARGON , Bradford, IA 68 °F - - - North  at  - 0.00 in / hr 1198 ft 9:40 AM CDT MADIS
Meyer Agri-Air, Wellsburg, IA 75.0 °F 77 °F 60 °F 60% West  at  8.0 mph 0.00 in / hr 1093 ft 11:40 AM CDT Normal
Beeds Addition, Hampton, IA 77.2 °F 79 °F 62 °F 60% NW  at  6.0 mph 0.00 in / hr 1145 ft 11:50 AM CDT Rapid Fire
MesoWest SHEFFI , Chapin, IA 72 °F - - - North  at  - 0.00 in / hr 1154 ft 9:50 AM CDT MADIS

Show More Stations Show Fewer Stations